createdAt,value
2018-04-10T00:00:27.629Z,14.90
2018-04-10T00:02:53.762Z,14.90
2018-04-10T00:05:19.761Z,14.90
2018-04-10T00:07:46.529Z,14.90
2018-04-10T00:10:12.674Z,14.90
2018-04-10T00:12:38.741Z,14.90
2018-04-10T00:15:04.755Z,14.90
2018-04-10T00:17:30.926Z,14.90
2018-04-10T00:19:56.957Z,15.00
2018-04-10T00:22:23.063Z,14.90
2018-04-10T00:24:49.074Z,14.90
2018-04-10T00:27:15.859Z,14.80
2018-04-10T00:29:41.846Z,14.80
2018-04-10T00:32:07.850Z,14.80
2018-04-10T00:34:34.045Z,14.80
2018-04-10T00:37:00.059Z,14.90
2018-04-10T00:39:26.076Z,14.90
2018-04-10T00:41:52.151Z,14.80
2018-04-10T00:44:18.941Z,14.90
2018-04-10T00:46:44.933Z,14.80
2018-04-10T00:49:10.962Z,14.90
2018-04-10T00:51:37.155Z,15.00
2018-04-10T00:54:03.933Z,15.20
2018-04-10T00:56:29.974Z,15.20
2018-04-10T00:58:56.020Z,15.30
2018-04-10T01:01:22.066Z,15.30
2018-04-10T01:03:48.066Z,15.40
2018-04-10T01:06:14.225Z,15.30
2018-04-10T01:08:40.375Z,15.30
2018-04-10T01:11:06.405Z,15.30
2018-04-10T01:13:32.407Z,15.20
2018-04-10T01:15:59.230Z,15.20
2018-04-10T01:18:25.218Z,15.20
2018-04-10T01:20:51.250Z,15.10
2018-04-10T01:23:17.401Z,15.20
2018-04-10T01:25:43.413Z,15.20
2018-04-10T01:28:09.434Z,15.20
2018-04-10T01:30:35.493Z,15.20
2018-04-10T01:33:02.275Z,15.00
2018-04-10T01:35:28.260Z,15.00
2018-04-10T01:37:55.014Z,15.10
2018-04-10T01:40:21.153Z,15.10
2018-04-10T01:42:47.157Z,15.00
2018-04-10T01:45:13.187Z,14.90
2018-04-10T01:47:39.942Z,14.90
2018-04-10T01:50:05.970Z,14.90
2018-04-10T01:52:31.963Z,14.80
2018-04-10T01:54:58.717Z,14.80
2018-04-10T01:57:24.860Z,14.80
2018-04-10T01:59:50.851Z,14.80
2018-04-10T02:02:17.617Z,14.70
2018-04-10T02:04:43.633Z,14.70
2018-04-10T02:07:09.671Z,14.80
2018-04-10T02:09:35.678Z,14.80
2018-04-10T02:12:01.833Z,14.90
2018-04-10T02:14:27.881Z,14.90
2018-04-10T02:16:53.998Z,14.90
2018-04-10T02:19:20.018Z,14.90
2018-04-10T02:21:46.038Z,14.90
2018-04-10T02:24:12.087Z,14.90
2018-04-10T02:26:38.119Z,14.90
2018-04-10T02:29:04.122Z,14.80
2018-04-10T02:31:30.254Z,14.80
2018-04-10T02:33:56.258Z,14.90
2018-04-10T02:36:22.282Z,14.80
2018-04-10T02:38:48.312Z,14.80
2018-04-10T02:41:14.383Z,14.80
2018-04-10T02:43:40.377Z,14.70
2018-04-10T02:46:06.382Z,14.80
2018-04-10T02:48:32.413Z,14.80
2018-04-10T02:50:58.425Z,14.90
2018-04-10T02:53:24.430Z,14.90
2018-04-10T02:55:50.461Z,14.90
2018-04-10T02:58:17.206Z,14.80
2018-04-10T03:00:43.361Z,14.80
2018-04-10T03:03:09.408Z,14.80
2018-04-10T03:05:35.428Z,14.80
2018-04-10T03:08:02.174Z,14.80
2018-04-10T03:10:28.341Z,14.70
2018-04-10T03:12:54.347Z,14.70
2018-04-10T03:15:20.500Z,14.70
2018-04-10T03:17:46.541Z,14.70
2018-04-10T03:20:12.658Z,14.40
2018-04-10T03:22:38.699Z,14.50
2018-04-10T03:25:04.731Z,14.50
2018-04-10T03:27:31.501Z,14.60
2018-04-10T03:29:57.502Z,14.60
2018-04-10T03:32:24.261Z,14.70
2018-04-10T03:34:50.390Z,14.70
2018-04-10T03:37:16.413Z,14.70
2018-04-10T03:39:42.428Z,14.70
2018-04-10T03:42:08.477Z,14.60
2018-04-10T03:44:34.510Z,14.50
2018-04-10T03:47:00.661Z,14.50
2018-04-10T03:49:26.666Z,14.60
2018-04-10T03:51:52.708Z,14.70
2018-04-10T03:54:18.710Z,14.80
2018-04-10T03:56:44.750Z,14.80
2018-04-10T03:59:10.758Z,14.80
2018-04-10T04:01:36.843Z,14.80
2018-04-10T04:04:02.841Z,14.90
2018-04-10T04:06:28.987Z,14.90
2018-04-10T04:09:18.456Z,14.80
2018-04-10T04:11:45.373Z,14.60
2018-04-10T04:14:11.377Z,14.60
2018-04-10T04:16:37.434Z,14.50
2018-04-10T04:19:03.495Z,14.50
2018-04-10T04:21:29.524Z,14.50
2018-04-10T04:23:55.674Z,14.40
2018-04-10T04:26:21.682Z,14.50
2018-04-10T04:28:47.709Z,14.50
2018-04-10T04:31:13.736Z,14.40
2018-04-10T04:33:39.801Z,14.30
2018-04-10T04:36:05.802Z,14.10
2018-04-10T04:38:31.833Z,14.10
2018-04-10T04:40:57.854Z,14.10
2018-04-10T04:43:23.913Z,14.10
2018-04-10T04:45:50.667Z,14.00
2018-04-10T04:48:16.669Z,13.90
2018-04-10T04:50:42.819Z,14.00
2018-04-10T04:53:08.843Z,13.90
2018-04-10T04:55:34.874Z,13.90
2018-04-10T04:58:00.898Z,13.90
2018-04-10T05:00:26.931Z,13.80
2018-04-10T05:02:52.942Z,13.70
2018-04-10T05:05:19.070Z,13.70
2018-04-10T05:07:45.115Z,13.80
2018-04-10T05:10:11.326Z,13.80
2018-04-10T05:12:37.367Z,13.80
2018-04-10T05:15:03.405Z,13.70
2018-04-10T05:17:29.443Z,13.60
2018-04-10T05:19:55.599Z,13.50
2018-04-10T05:22:21.646Z,13.50
2018-04-10T05:24:47.658Z,13.50
2018-04-10T05:27:13.730Z,13.60
2018-04-10T05:29:39.741Z,13.60
2018-04-10T05:32:05.794Z,13.60
2018-04-10T05:34:31.831Z,13.70
2018-04-10T05:36:58.778Z,13.90
2018-04-10T05:39:24.810Z,13.90
2018-04-10T05:41:51.583Z,14.00
2018-04-10T05:44:17.595Z,14.00
2018-04-10T05:46:43.657Z,14.00
2018-04-10T05:49:09.687Z,14.10
2018-04-10T05:51:36.461Z,14.00
2018-04-10T05:54:02.607Z,14.00
2018-04-10T05:56:28.626Z,14.10
2018-04-10T05:58:54.658Z,14.10
2018-04-10T06:01:20.665Z,14.10
2018-04-10T06:03:46.735Z,14.10
2018-04-10T06:06:12.726Z,14.00
2018-04-10T06:08:38.906Z,13.80
2018-04-10T06:11:04.910Z,13.80
2018-04-10T06:13:30.917Z,13.90
2018-04-10T06:15:56.924Z,13.90
2018-04-10T06:18:22.954Z,13.90
2018-04-10T06:20:49.070Z,13.90
2018-04-10T06:23:15.255Z,13.90
2018-04-10T06:25:41.254Z,14.00
2018-04-10T06:28:07.240Z,14.10
2018-04-10T06:30:33.280Z,14.00
2018-04-10T06:32:59.294Z,14.00
2018-04-10T06:35:25.322Z,14.00
2018-04-10T06:37:51.326Z,14.10
2018-04-10T06:40:17.366Z,14.10
2018-04-10T06:42:43.357Z,14.20
2018-04-10T06:45:09.434Z,14.30
2018-04-10T06:47:35.539Z,14.30
2018-04-10T06:50:01.527Z,14.40
2018-04-10T06:52:28.298Z,14.40
2018-04-10T06:54:54.327Z,14.40
2018-04-10T06:57:20.470Z,14.40
2018-04-10T06:59:46.473Z,14.40
2018-04-10T07:02:12.502Z,14.50
2018-04-10T07:04:38.519Z,14.50
2018-04-10T07:07:04.578Z,14.50
2018-04-10T07:09:30.763Z,14.50
2018-04-10T07:11:56.815Z,14.60
2018-04-10T07:14:22.846Z,14.50
2018-04-10T07:16:48.857Z,14.50
2018-04-10T07:19:14.876Z,14.60
2018-04-10T07:21:40.867Z,14.70
2018-04-10T07:24:07.053Z,14.80
2018-04-10T07:26:33.086Z,14.80
2018-04-10T07:28:59.272Z,14.80
2018-04-10T07:31:25.314Z,14.90
2018-04-10T07:33:51.345Z,14.90
2018-04-10T07:36:17.378Z,14.80
2018-04-10T07:38:43.458Z,14.90
2018-04-10T07:41:09.457Z,15.00
2018-04-10T07:43:36.256Z,15.00
2018-04-10T07:46:02.290Z,15.00
2018-04-10T07:48:28.305Z,15.20
2018-04-10T07:50:54.338Z,15.30
2018-04-10T07:53:20.398Z,15.30
2018-04-10T07:55:46.558Z,15.30
2018-04-10T07:58:12.562Z,15.40
2018-04-10T08:00:38.614Z,15.60
2018-04-10T08:03:04.622Z,15.50
2018-04-10T08:05:30.667Z,15.60
2018-04-10T08:07:56.679Z,15.70
2018-04-10T08:10:22.866Z,15.70
2018-04-10T08:12:49.021Z,15.80
2018-04-10T08:15:15.064Z,15.80
2018-04-10T08:17:41.121Z,15.90
2018-04-10T08:20:07.887Z,16.00
2018-04-10T08:22:34.646Z,16.10
2018-04-10T08:25:00.668Z,16.10
2018-04-10T08:27:26.855Z,16.00
2018-04-10T08:29:52.850Z,16.10
2018-04-10T08:32:18.905Z,16.20
2018-04-10T08:34:45.686Z,16.40
2018-04-10T08:37:11.698Z,16.40
2018-04-10T08:39:37.738Z,16.60
2018-04-10T08:42:03.752Z,16.70
2018-04-10T08:44:29.911Z,16.80
2018-04-10T08:46:55.954Z,16.80
2018-04-10T08:49:21.993Z,16.90
2018-04-10T08:51:48.755Z,17.00
2018-04-10T08:54:14.787Z,17.00
2018-04-10T08:56:40.801Z,17.10
2018-04-10T08:59:06.981Z,17.20
2018-04-10T09:01:33.027Z,17.30
2018-04-10T09:03:59.806Z,17.40
2018-04-10T09:06:25.818Z,17.40
2018-04-10T09:08:51.994Z,17.50
2018-04-10T09:11:18.007Z,17.60
2018-04-10T09:13:54.207Z,17.70
2018-04-10T09:16:24.445Z,17.80
2018-04-10T09:18:50.459Z,18.00
2018-04-10T09:21:16.499Z,18.00
2018-04-10T09:23:42.547Z,18.10
2018-04-10T09:26:08.595Z,18.20
2018-04-10T09:28:34.589Z,18.30
2018-04-10T09:31:00.768Z,18.40
2018-04-10T09:33:26.787Z,18.50
2018-04-10T09:35:53.598Z,18.60
2018-04-10T09:38:19.603Z,18.60
2018-04-10T09:40:45.627Z,18.80
2018-04-10T09:43:11.680Z,18.80
2018-04-10T09:45:37.686Z,18.80
2018-04-10T09:48:03.840Z,18.90
2018-04-10T09:50:29.841Z,18.90
2018-04-10T09:52:55.881Z,18.90
2018-04-10T09:55:21.878Z,19.00
2018-04-10T09:57:47.924Z,19.00
2018-04-10T10:00:13.937Z,18.90
2018-04-10T10:02:40.022Z,18.90
2018-04-10T10:05:06.039Z,18.90
2018-04-10T10:07:32.065Z,19.00
2018-04-10T10:09:58.219Z,19.00
2018-04-10T10:12:24.279Z,19.00
2018-04-10T10:14:50.306Z,19.00
2018-04-10T10:17:16.456Z,19.00
2018-04-10T10:19:43.210Z,19.10
2018-04-10T10:22:09.254Z,19.10
2018-04-10T10:24:35.258Z,19.20
2018-04-10T10:27:02.311Z,19.20
2018-04-10T10:29:28.337Z,19.20
2018-04-10T10:31:54.505Z,19.40
2018-04-10T10:34:20.556Z,19.40
2018-04-10T10:36:47.298Z,19.40
2018-04-10T10:39:14.222Z,19.40
2018-04-10T10:41:40.330Z,19.40
2018-04-10T10:44:06.435Z,19.50
2018-04-10T10:46:32.458Z,19.60
2018-04-10T10:48:58.470Z,19.70
2018-04-10T10:51:24.639Z,19.80
2018-04-10T10:53:50.667Z,19.90
2018-04-10T10:56:16.726Z,20.00
2018-04-10T10:58:42.750Z,20.10
2018-04-10T11:01:08.774Z,20.00
2018-04-10T11:03:35.705Z,20.10
2018-04-10T11:06:02.479Z,20.10
2018-04-10T11:08:28.523Z,20.10
2018-04-10T11:10:54.694Z,20.20
2018-04-10T11:13:20.714Z,20.30
2018-04-10T11:15:46.792Z,20.40
2018-04-10T11:18:12.810Z,20.40
2018-04-10T11:20:38.883Z,20.50
2018-04-10T11:23:05.672Z,20.80
2018-04-10T11:25:31.710Z,20.70
2018-04-10T11:27:57.934Z,20.70
2018-04-10T11:30:23.969Z,20.80
2018-04-10T11:32:50.022Z,20.90
2018-04-10T11:35:16.098Z,21.00
2018-04-10T11:37:42.138Z,21.20
2018-04-10T11:40:08.157Z,21.30
2018-04-10T11:42:34.264Z,21.40
2018-04-10T11:47:54.449Z,21.30
2018-04-10T11:50:29.484Z,21.30
2018-04-10T11:52:55.697Z,21.40
2018-04-10T11:55:22.717Z,21.40
2018-04-10T11:57:48.715Z,21.60
2018-04-10T12:00:14.767Z,21.50
2018-04-10T12:02:40.868Z,21.50
2018-04-10T12:05:06.942Z,21.60
2018-04-10T12:07:33.691Z,21.60
2018-04-10T12:09:59.858Z,21.60
2018-04-10T12:12:26.026Z,21.50
2018-04-10T12:14:52.070Z,21.50
2018-04-10T12:17:18.870Z,21.30
2018-04-10T12:19:44.931Z,21.30
2018-04-10T12:22:11.722Z,21.30
2018-04-10T12:24:37.910Z,21.30
2018-04-10T12:27:03.970Z,21.30
2018-04-10T12:29:30.007Z,21.40
2018-04-10T12:31:56.013Z,21.50
2018-04-10T12:34:22.041Z,21.60
2018-04-10T12:36:48.098Z,21.60
2018-04-10T12:39:14.928Z,21.80
2018-04-10T12:41:41.109Z,21.80
2018-04-10T12:44:07.098Z,22.00
2018-04-10T12:46:33.134Z,22.10
2018-04-10T12:48:59.901Z,22.10
2018-04-10T12:51:26.085Z,22.10
2018-04-10T12:53:52.828Z,22.00
2018-04-10T12:56:19.670Z,22.10
2018-04-10T12:58:46.432Z,22.20
2018-04-10T13:01:12.462Z,22.20
2018-04-10T13:03:38.479Z,22.30
2018-04-10T13:06:05.046Z,22.30
2018-04-10T13:08:31.335Z,22.40
2018-04-10T13:10:58.086Z,22.70
2018-04-10T13:13:24.888Z,22.70
2018-04-10T13:15:50.896Z,22.70
2018-04-10T13:18:16.973Z,22.80
2018-04-10T13:20:43.010Z,22.70
2018-04-10T13:23:09.182Z,22.80
2018-04-10T13:25:35.197Z,22.90
2018-04-10T13:28:01.236Z,23.10
2018-04-10T13:30:27.318Z,23.20
2018-04-10T13:32:53.336Z,23.30
2018-04-10T13:35:19.365Z,23.10
2018-04-10T13:37:45.407Z,23.00
2018-04-10T13:40:11.576Z,23.00
2018-04-10T13:42:37.570Z,22.80
2018-04-10T13:45:03.606Z,22.80
2018-04-10T13:47:29.610Z,22.80
2018-04-10T13:49:55.650Z,22.70
2018-04-10T13:52:21.639Z,22.70
2018-04-10T13:54:47.650Z,22.60
2018-04-10T13:57:13.826Z,22.60
2018-04-10T13:59:39.823Z,22.50
2018-04-10T14:02:05.874Z,22.60
2018-04-10T14:04:32.071Z,22.60
2018-04-10T14:06:58.086Z,22.50
2018-04-10T14:09:24.139Z,22.30
2018-04-10T14:11:50.357Z,22.30
2018-04-10T14:14:16.396Z,22.30
2018-04-10T14:16:42.428Z,22.10
2018-04-10T14:19:09.232Z,22.10
2018-04-10T14:21:35.240Z,22.10
2018-04-10T14:24:01.290Z,22.10
2018-04-10T14:26:27.293Z,22.10
2018-04-10T14:28:53.355Z,22.10
2018-04-10T14:31:19.350Z,22.10
2018-04-10T14:33:45.419Z,22.10
2018-04-10T14:36:12.195Z,22.00
2018-04-10T14:38:38.246Z,22.00
2018-04-10T14:41:04.272Z,22.00
2018-04-10T14:43:30.285Z,22.00
2018-04-10T14:45:56.515Z,22.00
2018-04-10T14:48:22.716Z,22.00
2018-04-10T14:50:48.778Z,22.00
2018-04-10T14:53:14.794Z,21.80
2018-04-10T14:55:40.866Z,21.70
2018-04-10T14:58:06.930Z,21.70
2018-04-10T15:00:33.100Z,21.50
2018-04-10T15:02:59.127Z,21.20
2018-04-10T15:05:25.222Z,20.90
2018-04-10T15:07:51.249Z,20.10
2018-04-10T15:10:17.290Z,19.20
2018-04-10T15:12:43.335Z,18.40
2018-04-10T15:15:09.514Z,18.10
2018-04-10T15:17:35.565Z,17.80
2018-04-10T15:20:01.745Z,17.40
2018-04-10T15:22:27.806Z,17.00
2018-04-10T15:24:53.818Z,16.70
2018-04-10T15:27:19.854Z,16.30
2018-04-10T15:29:45.889Z,15.90
2018-04-10T15:32:11.970Z,15.30
2018-04-10T15:34:37.979Z,15.20
2018-04-10T15:37:04.014Z,15.20
2018-04-10T15:39:30.051Z,14.80
2018-04-10T15:41:56.114Z,14.60
2018-04-10T15:44:22.119Z,14.40
2018-04-10T15:46:48.286Z,14.10
2018-04-10T15:49:15.070Z,13.80
2018-04-10T15:51:41.138Z,13.70
2018-04-10T15:54:07.149Z,13.80
2018-04-10T15:56:33.202Z,13.50
2018-04-10T15:58:59.970Z,13.10
2018-04-10T16:01:25.999Z,13.10
2018-04-10T16:03:52.254Z,13.10
2018-04-10T16:06:18.291Z,12.90
2018-04-10T16:08:44.335Z,12.90
2018-04-10T16:11:11.075Z,12.80
2018-04-10T16:13:37.847Z,12.80
2018-04-10T16:16:03.861Z,12.70
2018-04-10T16:18:29.940Z,12.70
2018-04-10T16:20:55.968Z,12.50
2018-04-10T16:23:21.997Z,12.50
2018-04-10T16:25:48.009Z,12.50
2018-04-10T16:28:14.049Z,12.50
2018-04-10T16:30:40.104Z,12.50
2018-04-10T16:33:06.142Z,12.40
2018-04-10T16:35:32.298Z,12.30
2018-04-10T16:37:58.319Z,12.30
2018-04-10T16:40:24.387Z,12.30
2018-04-10T16:42:50.402Z,12.30
2018-04-10T16:45:16.414Z,12.20
2018-04-10T16:47:42.482Z,12.10
2018-04-10T16:50:08.507Z,11.80
2018-04-10T16:52:35.170Z,11.70
2018-04-10T16:55:01.346Z,11.70
2018-04-10T16:57:28.166Z,11.60
2018-04-10T16:59:54.224Z,11.60
2018-04-10T17:02:20.271Z,11.60
2018-04-10T17:04:46.510Z,11.60
2018-04-10T17:07:12.605Z,11.70
2018-04-10T17:09:38.681Z,11.60
2018-04-10T17:12:04.706Z,11.50
2018-04-10T17:14:30.807Z,11.10
2018-04-10T17:16:56.851Z,11.00
2018-04-10T17:19:22.951Z,10.60
2018-04-10T17:21:48.982Z,10.50
2018-04-10T17:24:15.162Z,10.40
2018-04-10T17:26:41.985Z,10.00
2018-04-10T17:29:08.830Z,9.90
2018-04-10T17:31:34.859Z,9.90
2018-04-10T17:34:01.715Z,9.80
2018-04-10T17:36:27.786Z,9.70
2018-04-10T17:38:53.832Z,9.60
2018-04-10T17:41:19.933Z,9.60
2018-04-10T17:43:46.006Z,9.50
2018-04-10T17:46:12.095Z,9.50
2018-04-10T17:48:38.115Z,9.50
2018-04-10T17:51:04.170Z,9.50
2018-04-10T17:53:30.952Z,9.30
2018-04-10T17:55:57.130Z,9.30
2018-04-10T17:58:23.146Z,9.40
2018-04-10T18:00:49.266Z,9.30
2018-04-10T18:03:15.458Z,9.30
2018-04-10T18:05:41.516Z,9.40
2018-04-10T18:08:07.539Z,9.40
2018-04-10T18:10:33.747Z,9.30
2018-04-10T18:12:59.815Z,9.30
2018-04-10T18:15:25.817Z,9.40
2018-04-10T18:17:51.968Z,9.40
2018-04-10T18:20:17.993Z,9.40
2018-04-10T18:22:44.816Z,9.50
2018-04-10T18:25:10.864Z,9.50
2018-04-10T18:27:37.848Z,9.60
2018-04-10T18:30:03.894Z,9.60
2018-04-10T18:32:29.986Z,9.60
2018-04-10T18:34:55.960Z,9.70
2018-04-10T18:37:22.046Z,9.70
2018-04-10T18:39:48.078Z,9.70
2018-04-10T18:42:14.316Z,9.70
2018-04-10T18:44:40.375Z,9.80
2018-04-10T18:47:07.227Z,9.90
2018-04-10T18:49:33.973Z,9.90
2018-04-10T18:52:07.800Z,9.90
2018-04-10T18:54:41.637Z,9.90
2018-04-10T18:57:15.342Z,9.80
2018-04-10T18:59:48.639Z,9.80
2018-04-10T19:02:14.835Z,9.90
2018-04-10T19:04:48.187Z,9.90
2018-04-10T19:07:14.363Z,10.00
2018-04-10T19:09:40.478Z,10.10
2018-04-10T19:12:06.546Z,10.00
2018-04-10T19:14:32.687Z,10.10
2018-04-10T19:16:58.789Z,10.00
2018-04-10T19:19:24.893Z,10.00
2018-04-10T19:21:50.998Z,10.10
2018-04-10T19:24:17.121Z,10.10
2018-04-10T19:26:43.232Z,10.20
2018-04-10T19:29:09.296Z,10.20
2018-04-10T19:31:35.540Z,10.20
2018-04-10T19:34:01.602Z,10.20
2018-04-10T19:36:27.706Z,10.30
2018-04-10T19:38:53.750Z,10.40
2018-04-10T19:41:20.623Z,10.60
2018-04-10T19:43:46.640Z,10.60
2018-04-10T19:46:12.743Z,10.70
2018-04-10T19:48:38.931Z,10.80
2018-04-10T19:51:04.970Z,10.80
2018-04-10T19:53:31.051Z,10.90
2018-04-10T19:55:57.074Z,11.00
2018-04-10T19:58:23.207Z,11.10
2018-04-10T20:00:49.279Z,11.00
2018-04-10T20:03:15.647Z,10.90
2018-04-10T20:05:41.700Z,10.90
2018-04-10T20:08:07.767Z,10.90
2018-04-10T20:10:34.598Z,10.80
2018-04-10T20:13:00.663Z,10.80
2018-04-10T20:15:26.716Z,10.60
2018-04-10T20:17:52.802Z,10.50
2018-04-10T20:20:19.081Z,10.50
2018-04-10T20:22:45.174Z,10.50
2018-04-10T20:25:11.251Z,10.40
2018-04-10T20:27:37.334Z,10.40
2018-04-10T20:30:03.399Z,10.60
2018-04-10T20:32:29.536Z,10.60
2018-04-10T20:34:55.773Z,10.70
2018-04-10T20:37:21.873Z,10.80
2018-04-10T20:39:47.945Z,10.90
2018-04-10T20:42:14.042Z,11.00
2018-04-10T20:44:40.152Z,11.00
2018-04-10T20:47:06.208Z,11.00
2018-04-10T20:49:32.287Z,11.00
2018-04-10T20:51:58.546Z,10.90
2018-04-10T20:54:25.416Z,11.00
2018-04-10T20:56:51.510Z,11.00
2018-04-10T20:59:18.341Z,11.10
2018-04-10T21:01:44.419Z,11.10
2018-04-10T21:04:10.737Z,11.10
2018-04-10T21:06:36.907Z,11.20
2018-04-10T21:09:02.919Z,11.20
2018-04-10T21:11:28.971Z,11.20
2018-04-10T21:13:54.988Z,11.20
2018-04-10T21:16:21.046Z,11.10
2018-04-10T21:18:47.803Z,11.10
2018-04-10T21:21:13.991Z,11.00
2018-04-10T21:23:40.131Z,11.00
2018-04-10T21:26:06.891Z,11.30
2018-04-10T21:28:32.971Z,11.20
2018-04-10T21:30:58.983Z,11.30
2018-04-10T21:33:25.046Z,11.40
2018-04-10T21:35:51.837Z,11.40
2018-04-10T21:38:18.018Z,11.40
2018-04-10T21:40:44.062Z,11.40
2018-04-10T21:43:10.074Z,11.40
2018-04-10T21:45:36.134Z,11.40
2018-04-10T21:48:02.206Z,11.30
2018-04-10T21:50:29.013Z,11.40
2018-04-10T21:52:55.100Z,11.40
2018-04-10T21:55:21.283Z,11.40
2018-04-10T21:57:47.290Z,11.40
2018-04-10T22:00:13.342Z,11.40
2018-04-10T22:02:39.374Z,11.40
2018-04-10T22:05:06.350Z,11.30
2018-04-10T22:07:32.395Z,11.40
2018-04-10T22:09:58.660Z,11.30
2018-04-10T22:12:24.698Z,11.30
2018-04-10T22:14:51.450Z,11.30
2018-04-10T22:17:17.514Z,11.20
2018-04-10T22:19:43.545Z,11.30
2018-04-10T22:22:09.590Z,11.30
2018-04-10T22:24:35.612Z,11.30
2018-04-10T22:27:01.799Z,11.30
2018-04-10T22:29:27.815Z,11.30
2018-04-10T22:31:53.900Z,11.20
2018-04-10T22:34:19.883Z,11.20
2018-04-10T22:36:45.927Z,11.20
2018-04-10T22:39:12.701Z,11.30
2018-04-10T22:41:38.883Z,11.30
2018-04-10T22:44:04.917Z,11.30
2018-04-10T22:46:30.966Z,11.30
2018-04-10T22:48:56.980Z,11.30
2018-04-10T22:51:23.043Z,11.40
2018-04-10T22:53:49.068Z,11.30
2018-04-10T22:56:15.103Z,11.40
2018-04-10T22:58:41.271Z,11.40
2018-04-10T23:01:08.051Z,11.30
2018-04-10T23:03:34.168Z,11.30
2018-04-10T23:06:00.200Z,11.40
2018-04-10T23:08:26.431Z,11.30
2018-04-10T23:10:52.443Z,11.30
2018-04-10T23:13:18.616Z,11.30
2018-04-10T23:15:44.674Z,11.30
2018-04-10T23:18:10.766Z,11.30
2018-04-10T23:20:36.812Z,11.30
2018-04-10T23:23:02.857Z,11.10
2018-04-10T23:25:29.663Z,11.10
2018-04-10T23:27:55.682Z,11.20
2018-04-10T23:30:21.875Z,11.20
2018-04-10T23:32:47.911Z,11.20
2018-04-10T23:35:14.008Z,11.20
2018-04-10T23:37:40.802Z,11.20
2018-04-10T23:40:06.890Z,11.20
2018-04-10T23:42:32.930Z,11.10
2018-04-10T23:44:59.118Z,11.10
2018-04-10T23:47:25.165Z,11.10
2018-04-10T23:49:51.226Z,11.10
2018-04-10T23:52:17.331Z,11.10
2018-04-10T23:54:43.347Z,11.10
2018-04-10T23:57:09.671Z,11.10
2018-04-10T23:59:35.700Z,11.00
